Terminal Aerodrome Forecast
Issued by NWS

Home | Current Version | Previous Version | Graphics & Text | Print | Product List | Glossary On
Versions: 1 2 3 4 5 6 7 8 9 10 11 12 13
000
FTUS43 KICT 262320
TAFSLN
TAF
KSLN 262320Z 2700/2724 35009KT P6SM SCT060
     FM270600 VRB05KT P6SM SCT060
     FM271500 16006KT P6SM SKC
     FM271800 18013G20KT P6SM SKC=

USA.gov is the U.S. government's official web portal to all federal, state and local government web resources and services.